Time;durP1;ratioP1;P1;durP2;ratioP2;P2;SDS_P1;SDS_P2;PMS_P1;PMS_P2;Temp;Humidity;BMP_temperature;BMP_pressure;BME280_temperature;BME280_humidity;BME280_pressure;Samples;Min_cycle;Max_cycle;Signal;HPM_P1;HPM_P2
2021/06/08 00:02:46;;;;;;;6.03;4.30;;;24.10;44.50;;;;;;6235436;27;83224;-65
2021/06/08 00:05:47;;;;;;;6.45;3.95;;;24.10;44.50;;;;;;6237199;27;81005;-65
2021/06/08 00:08:47;;;;;;;5.90;4.65;;;24.10;44.70;;;;;;6232373;27;81977;-65
2021/06/08 00:11:48;;;;;;;6.28;3.90;;;24.10;44.70;;;;;;6231760;27;80405;-65
2021/06/08 00:14:48;;;;;;;7.18;4.65;;;24.10;44.90;;;;;;6232207;27;80291;-65
2021/06/08 00:17:49;;;;;;;5.95;4.03;;;24.10;45.00;;;;;;6235065;27;81784;-65
2021/06/08 00:20:49;;;;;;;6.93;4.22;;;24.10;44.80;;;;;;6239446;27;83053;-65
2021/06/08 00:23:50;;;;;;;4.72;3.67;;;24.10;44.80;;;;;;6232071;27;82724;-65
2021/06/08 00:26:50;;;;;;;6.00;3.92;;;24.10;44.90;;;;;;6229318;27;80593;-65
2021/06/08 00:29:51;;;;;;;6.50;4.47;;;24.10;44.80;;;;;;6229873;27;82925;-66
2021/06/08 00:32:51;;;;;;;8.15;5.15;;;24.10;45.10;;;;;;6230760;27;80311;-66
2021/06/08 00:35:52;;;;;;;8.32;4.88;;;24.10;45.10;;;;;;6232537;27;83255;-66
2021/06/08 00:38:52;;;;;;;5.60;4.13;;;24.10;45.20;;;;;;6240493;27;80032;-66
2021/06/08 00:41:53;;;;;;;5.65;4.05;;;24.10;44.90;;;;;;6232999;27;81561;-65
2021/06/08 00:44:53;;;;;;;5.75;4.85;;;24.10;45.00;;;;;;6233026;27;80274;-65
2021/06/08 00:47:54;;;;;;;6.18;4.88;;;24.10;45.20;;;;;;6228964;27;81768;-65
2021/06/08 00:50:54;;;;;;;6.20;4.63;;;24.10;45.20;;;;;;6242950;27;80442;-65
2021/06/08 00:53:55;;;;;;;5.15;4.47;;;24.10;45.00;;;;;;6233009;27;80374;-65
2021/06/08 00:56:58;;;;;;;7.28;4.88;;;24.10;44.80;;;;;;6231033;27;80533;-66
2021/06/08 00:59:58;;;;;;;6.75;4.95;;;24.10;44.90;;;;;;6232268;27;80396;-66
2021/06/08 01:02:59;;;;;;;8.48;5.28;;;24.10;44.70;;;;;;6232892;27;80828;-66
2021/06/08 01:05:59;;;;;;;6.88;4.60;;;24.10;44.90;;;;;;6230230;27;81315;-65
2021/06/08 01:09:00;;;;;;;7.63;5.25;;;24.10;44.80;;;;;;6233371;27;80973;-64
2021/06/08 01:12:00;;;;;;;7.18;5.20;;;24.10;44.90;;;;;;6230641;27;81288;-64
2021/06/08 01:15:01;;;;;;;6.28;4.47;;;24.10;44.90;;;;;;6230677;27;80315;-65
2021/06/08 01:18:01;;;;;;;9.05;4.78;;;24.10;45.10;;;;;;6232005;27;80890;-65
2021/06/08 01:21:02;;;;;;;6.68;4.32;;;24.10;45.00;;;;;;6230378;27;81433;-65
2021/06/08 01:24:02;;;;;;;9.13;4.78;;;24.10;44.90;;;;;;6236443;27;80016;-65
2021/06/08 01:27:03;;;;;;;7.53;4.82;;;24.10;45.10;;;;;;6240921;27;81993;-65
2021/06/08 01:30:03;;;;;;;8.43;5.25;;;24.10;45.00;;;;;;6232140;27;80376;-65
2021/06/08 01:33:04;;;;;;;7.85;4.85;;;24.10;44.90;;;;;;6232521;27;82153;-65
2021/06/08 01:36:04;;;;;;;7.93;5.35;;;24.10;45.10;;;;;;6234645;27;82460;-66
2021/06/08 01:39:05;;;;;;;7.90;4.90;;;24.10;44.80;;;;;;6234444;27;82346;-66
2021/06/08 01:42:05;;;;;;;7.78;5.85;;;24.10;45.10;;;;;;6243345;27;80342;-66
2021/06/08 01:45:06;;;;;;;8.30;5.40;;;24.10;45.10;;;;;;6244957;27;81080;-66
2021/06/08 01:48:06;;;;;;;6.13;4.55;;;24.10;45.60;;;;;;6235851;27;83543;-66
2021/06/08 01:51:07;;;;;;;7.43;5.30;;;24.10;45.10;;;;;;6233839;27;80777;-66
2021/06/08 01:54:07;;;;;;;9.90;5.47;;;24.10;45.10;;;;;;6241345;27;80456;-66
2021/06/08 01:57:08;;;;;;;6.80;5.32;;;24.10;45.00;;;;;;6225228;27;81663;-66
2021/06/08 02:00:08;;;;;;;10.95;5.25;;;24.10;45.20;;;;;;6235493;27;80832;-66
2021/06/08 02:03:09;;;;;;;6.93;5.38;;;24.10;45.10;;;;;;6234155;27;80638;-66
2021/06/08 02:06:09;;;;;;;10.20;5.78;;;24.10;45.20;;;;;;6239662;27;80520;-67
2021/06/08 02:09:10;;;;;;;8.23;5.32;;;24.10;45.10;;;;;;6234762;27;81723;-66
2021/06/08 02:12:10;;;;;;;7.75;5.63;;;24.10;45.10;;;;;;6234900;27;80583;-67
2021/06/08 02:15:11;;;;;;;9.23;5.25;;;24.10;45.10;;;;;;6235552;27;81032;-65
2021/06/08 02:18:11;;;;;;;8.50;5.50;;;24.10;45.60;;;;;;6244964;27;80344;-65
2021/06/08 02:21:12;;;;;;;9.73;5.53;;;24.10;45.30;;;;;;6239570;27;80550;-64
2021/06/08 02:24:12;;;;;;;6.70;5.10;;;24.10;45.40;;;;;;6238107;27;80451;-65
2021/06/08 02:27:13;;;;;;;11.23;6.22;;;24.10;45.60;;;;;;6232292;27;80502;-64
2021/06/08 02:30:13;;;;;;;10.40;5.85;;;24.10;45.50;;;;;;6234221;27;80253;-64
2021/06/08 02:33:14;;;;;;;8.18;5.03;;;24.10;45.30;;;;;;6233964;27;80489;-64
2021/06/08 02:36:15;;;;;;;8.55;5.65;;;24.10;45.20;;;;;;6214924;27;80663;-65
2021/06/08 02:39:15;;;;;;;7.78;5.72;;;24.10;45.30;;;;;;6232621;27;80498;-65
2021/06/08 02:42:17;;;;;;;6.05;4.80;;;24.10;45.10;;;;;;6238515;27;81779;-64
2021/06/08 02:45:18;;;;;;;7.80;5.05;;;24.10;45.20;;;;;;6233324;27;80456;-64
2021/06/08 02:48:18;;;;;;;10.32;5.97;;;24.00;45.20;;;;;;6241699;27;80321;-65
2021/06/08 02:51:18;;;;;;;8.15;5.43;;;24.10;45.30;;;;;;6232683;27;80725;-65
2021/06/08 02:54:19;;;;;;;8.88;5.10;;;24.10;45.40;;;;;;6235497;27;80877;-65
2021/06/08 02:57:19;;;;;;;9.45;5.53;;;24.10;45.10;;;;;;6231885;27;80372;-65
2021/06/08 03:00:20;;;;;;;7.88;5.13;;;24.10;45.20;;;;;;6240701;27;80429;-65
2021/06/08 03:03:20;;;;;;;8.25;5.20;;;24.10;45.20;;;;;;6234803;27;80165;-65
2021/06/08 03:06:21;;;;;;;6.95;4.82;;;24.10;45.30;;;;;;6235878;27;83568;-65
2021/06/08 03:09:22;;;;;;;7.85;5.40;;;24.10;45.10;;;;;;6237278;27;81531;-66
2021/06/08 03:12:22;;;;;;;7.90;5.68;;;24.10;44.90;;;;;;6243262;27;82758;-66
2021/06/08 03:15:24;;;;;;;9.98;5.72;;;24.10;45.10;;;;;;6239482;27;80463;-65
2021/06/08 03:18:25;;;;;;;9.98;5.78;;;24.10;44.90;;;;;;6239264;27;80447;-66
2021/06/08 03:21:25;;;;;;;10.10;6.47;;;24.10;45.10;;;;;;6233295;27;80689;-66
2021/06/08 03:24:26;;;;;;;9.93;5.75;;;24.10;45.20;;;;;;6232322;27;83934;-65
2021/06/08 03:27:26;;;;;;;7.68;5.55;;;24.10;44.90;;;;;;6234915;27;80186;-65
2021/06/08 03:30:27;;;;;;;11.00;5.10;;;24.00;45.30;;;;;;6234681;27;81501;-65
2021/06/08 03:33:27;;;;;;;9.23;5.47;;;24.00;44.70;;;;;;6237670;27;80798;-65
2021/06/08 03:36:28;;;;;;;8.75;5.07;;;24.00;44.80;;;;;;6232993;27;80455;-66
2021/06/08 03:39:28;;;;;;;6.60;4.63;;;24.00;46.30;;;;;;6239445;27;81057;-65
2021/06/08 03:42:29;;;;;;;7.25;5.22;;;24.10;46.30;;;;;;6233812;27;80424;-66
2021/06/08 03:45:29;;;;;;;8.48;5.95;;;24.00;46.10;;;;;;6240840;27;80999;-65
2021/06/08 03:48:30;;;;;;;9.13;5.95;;;24.10;45.80;;;;;;6235194;27;81839;-67
2021/06/08 03:51:30;;;;;;;8.60;5.53;;;24.10;46.00;;;;;;6233963;27;81088;-67
2021/06/08 03:54:31;;;;;;;8.10;4.80;;;24.10;46.00;;;;;;6234740;27;80492;-64
2021/06/08 03:57:33;;;;;;;18.63;6.97;;;24.10;46.00;;;;;;6234957;27;81441;-64
2021/06/08 04:00:33;;;;;;;6.78;5.05;;;24.10;46.50;;;;;;6237586;27;80635;-67
2021/06/08 04:03:34;;;;;;;10.10;5.47;;;24.10;46.40;;;;;;6241175;27;80811;-62
2021/06/08 04:06:34;;;;;;;9.27;5.75;;;24.10;46.50;;;;;;6235026;27;80571;-63
2021/06/08 04:09:35;;;;;;;13.75;5.38;;;24.10;46.80;;;;;;6232796;27;81175;-65
2021/06/08 04:12:36;;;;;;;10.68;5.22;;;24.10;46.70;;;;;;6233854;27;80640;-64
2021/06/08 04:15:36;;;;;;;12.25;5.32;;;24.10;46.60;;;;;;6239554;27;81074;-65
2021/06/08 04:18:36;;;;;;;11.30;4.82;;;24.10;46.20;;;;;;6234552;27;80723;-64
2021/06/08 04:21:37;;;;;;;12.20;4.78;;;24.20;46.30;;;;;;6234385;27;80473;-65
2021/06/08 04:24:37;;;;;;;8.93;5.30;;;24.10;46.50;;;;;;6230668;27;80781;-66
2021/06/08 04:27:38;;;;;;;7.85;5.20;;;24.20;46.40;;;;;;6240696;27;80499;-65
2021/06/08 04:30:39;;;;;;;9.52;5.90;;;24.10;46.30;;;;;;6221572;27;80705;-64
2021/06/08 04:33:39;;;;;;;8.43;5.10;;;24.10;46.50;;;;;;6232609;27;82752;-66
2021/06/08 04:36:40;;;;;;;9.35;5.30;;;24.10;46.40;;;;;;6231499;27;80864;-63
2021/06/08 04:39:40;;;;;;;11.55;5.38;;;24.10;46.40;;;;;;6242607;27;81449;-65
2021/06/08 04:42:41;;;;;;;7.53;5.75;;;24.10;46.70;;;;;;6230518;27;80583;-66
2021/06/08 04:45:41;;;;;;;6.53;5.00;;;24.20;46.70;;;;;;6233278;27;80844;-65
2021/06/08 04:48:42;;;;;;;6.15;4.88;;;24.20;46.60;;;;;;6231990;27;80304;-65
2021/06/08 04:51:42;;;;;;;9.57;5.18;;;24.20;46.50;;;;;;6232828;27;81513;-65
2021/06/08 04:54:43;;;;;;;10.88;5.53;;;24.20;46.50;;;;;;6230193;27;80344;-65
2021/06/08 04:57:45;;;;;;;11.05;5.40;;;24.20;46.60;;;;;;6233497;27;80771;-65
2021/06/08 05:00:46;;;;;;;9.35;5.68;;;24.20;46.50;;;;;;6224789;27;80250;-64
2021/06/08 05:03:46;;;;;;;7.70;5.40;;;24.20;46.10;;;;;;6237254;27;81696;-63
2021/06/08 05:06:47;;;;;;;9.68;5.32;;;24.20;46.00;;;;;;6239919;27;80271;-66
2021/06/08 05:09:47;;;;;;;9.95;5.57;;;24.20;45.80;;;;;;6225227;27;80687;-66
2021/06/08 05:12:49;;;;;;;8.57;5.53;;;24.20;45.90;;;;;;6231324;27;80208;-66
2021/06/08 05:15:49;;;;;;;14.27;5.72;;;24.20;45.50;;;;;;6231748;28;84219;-66
2021/06/08 05:18:50;;;;;;;7.65;5.85;;;24.10;45.20;;;;;;6233550;27;80547;-65
2021/06/08 05:21:50;;;;;;;9.93;5.30;;;24.10;45.70;;;;;;6232333;27;81438;-66
2021/06/08 05:24:51;;;;;;;12.85;5.82;;;24.10;45.20;;;;;;6232749;27;80461;-64
2021/06/08 05:27:51;;;;;;;18.80;6.32;;;24.10;44.70;;;;;;6230915;27;80247;-66
2021/06/08 05:30:52;;;;;;;9.20;5.30;;;24.10;44.70;;;;;;6228825;27;80302;-66
2021/06/08 05:33:52;;;;;;;14.48;6.75;;;24.10;45.10;;;;;;6235152;27;80407;-65
2021/06/08 05:36:53;;;;;;;9.45;6.32;;;24.10;45.00;;;;;;6230609;27;80571;-65
2021/06/08 05:39:53;;;;;;;11.00;5.70;;;24.10;45.70;;;;;;6243722;27;80735;-65
2021/06/08 05:42:54;;;;;;;10.95;6.88;;;24.10;45.50;;;;;;6235273;27;80468;-64
2021/06/08 05:45:54;;;;;;;16.48;5.80;;;24.10;45.30;;;;;;6239240;27;81625;-66
2021/06/08 05:48:55;;;;;;;11.32;5.95;;;24.10;45.30;;;;;;6236666;27;81009;-65
2021/06/08 05:51:58;;;;;;;10.10;6.28;;;24.10;45.40;;;;;;6237339;27;81558;-65
2021/06/08 05:54:58;;;;;;;12.55;6.13;;;24.10;45.70;;;;;;6237263;27;81450;-67
2021/06/08 05:57:59;;;;;;;12.32;6.72;;;24.10;45.40;;;;;;6236411;27;80644;-66
2021/06/08 06:00:59;;;;;;;9.82;5.95;;;24.10;45.50;;;;;;6232794;27;82736;-66
2021/06/08 06:04:00;;;;;;;11.27;7.10;;;24.10;45.90;;;;;;6233665;27;80541;-65
2021/06/08 06:07:00;;;;;;;11.38;7.00;;;24.10;45.40;;;;;;6239768;27;80610;-65
2021/06/08 06:10:01;;;;;;;16.48;7.80;;;24.10;45.40;;;;;;6229166;27;80326;-65
2021/06/08 06:13:01;;;;;;;17.90;7.53;;;24.00;45.00;;;;;;6228597;27;80457;-65
2021/06/08 06:16:02;;;;;;;20.42;7.72;;;24.10;45.20;;;;;;6236497;27;80747;-63
2021/06/08 06:19:03;;;;;;;10.52;7.60;;;24.10;45.20;;;;;;6231881;27;81604;-64
2021/06/08 06:22:03;;;;;;;14.90;7.03;;;24.00;45.00;;;;;;6240205;27;80574;-65
2021/06/08 06:25:04;;;;;;;13.45;7.30;;;24.10;44.90;;;;;;6235003;27;80821;-65
2021/06/08 06:28:04;;;;;;;13.57;7.07;;;24.10;45.00;;;;;;6228922;27;83278;-65
2021/06/08 06:31:05;;;;;;;11.40;6.93;;;24.10;45.20;;;;;;6233861;27;81080;-65
2021/06/08 06:34:05;;;;;;;14.23;7.43;;;24.10;45.10;;;;;;6235329;27;80426;-66
2021/06/08 06:37:07;;;;;;;16.58;8.13;;;24.10;45.00;;;;;;6241583;27;80534;-65
2021/06/08 06:40:08;;;;;;;12.05;7.43;;;24.10;45.40;;;;;;6241178;27;80824;-64
2021/06/08 06:43:08;;;;;;;10.77;7.15;;;24.10;45.00;;;;;;6230420;27;80870;-65
2021/06/08 06:46:09;;;;;;;15.18;7.80;;;24.10;45.50;;;;;;6240662;27;83311;-66
2021/06/08 06:49:09;;;;;;;23.42;8.40;;;24.10;45.20;;;;;;6229664;27;80481;-65
2021/06/08 06:52:10;;;;;;;9.40;7.03;;;24.10;45.00;;;;;;6232431;27;80698;-65
2021/06/08 06:55:10;;;;;;;12.05;7.30;;;24.10;45.10;;;;;;6230627;27;81673;-65
2021/06/08 06:58:11;;;;;;;10.70;7.30;;;24.10;45.40;;;;;;6238827;27;81561;-64
2021/06/08 07:01:11;;;;;;;11.45;8.07;;;24.10;45.10;;;;;;6230301;27;80301;-63
2021/06/08 07:04:12;;;;;;;12.30;7.68;;;24.10;45.20;;;;;;6236991;27;80463;-65
2021/06/08 07:07:12;;;;;;;15.38;7.55;;;24.10;45.20;;;;;;6243626;27;81390;-65
2021/06/08 07:10:13;;;;;;;11.57;7.57;;;24.20;45.20;;;;;;6219777;27;80619;-68
2021/06/08 07:13:14;;;;;;;14.07;7.97;;;24.10;45.80;;;;;;6227580;27;81380;-65
2021/06/08 07:16:15;;;;;;;14.73;7.70;;;24.20;45.30;;;;;;6228319;27;81430;-65
2021/06/08 07:19:15;;;;;;;15.93;8.05;;;24.20;45.40;;;;;;6229009;27;81098;-64
2021/06/08 07:22:17;;;;;;;19.23;9.10;;;24.20;45.30;;;;;;6231588;27;83900;-64
2021/06/08 07:25:17;;;;;;;16.25;8.77;;;24.10;45.70;;;;;;6230218;27;80142;-64
2021/06/08 07:28:18;;;;;;;19.85;8.23;;;24.10;45.00;;;;;;6228812;27;80182;-64
2021/06/08 07:31:18;;;;;;;15.23;8.40;;;24.20;45.30;;;;;;6227928;27;81403;-63
2021/06/08 07:34:19;;;;;;;23.60;8.60;;;24.20;45.90;;;;;;6231979;27;81246;-63
2021/06/08 07:37:19;;;;;;;12.98;7.18;;;24.20;45.40;;;;;;6230264;27;87190;-63
2021/06/08 07:40:20;;;;;;;24.38;9.27;;;24.20;45.60;;;;;;6230855;27;80854;-62
2021/06/08 07:43:20;;;;;;;15.52;7.25;;;24.20;45.70;;;;;;6232670;28;80795;-63
2021/06/08 07:46:21;;;;;;;14.40;7.47;;;24.10;45.50;;;;;;6230026;27;81512;-65
2021/06/08 07:49:21;;;;;;;14.05;7.22;;;24.10;45.50;;;;;;6230022;27;81381;-64
2021/06/08 07:52:23;;;;;;;17.08;8.13;;;24.10;46.10;;;;;;6230695;27;80243;-64
2021/06/08 07:55:24;;;;;;;14.80;6.95;;;24.10;46.10;;;;;;6227773;27;83139;-62
2021/06/08 07:58:25;;;;;;;17.77;6.43;;;24.20;46.30;;;;;;6228789;27;81857;-62
2021/06/08 08:01:26;;;;;;;14.15;7.15;;;24.20;46.10;;;;;;6230385;27;81834;-62
2021/06/08 08:04:32;;;;;;;11.38;6.70;;;24.20;45.90;;;;;;6230056;27;80550;-63
2021/06/08 08:07:33;;;;;;;15.43;6.68;;;24.30;45.90;;;;;;6232597;27;81627;-64
2021/06/08 08:10:33;;;;;;;17.55;6.65;;;24.20;45.10;;;;;;6229980;27;80534;-62
2021/06/08 08:13:34;;;;;;;10.00;5.97;;;24.30;45.20;;;;;;6230754;27;81034;-63
2021/06/08 08:16:34;;;;;;;15.48;5.50;;;24.30;45.20;;;;;;6225610;27;80715;-63
2021/06/08 08:19:35;;;;;;;9.20;5.63;;;24.30;43.70;;;;;;6230212;27;80514;-63
2021/06/08 08:22:35;;;;;;;10.25;5.57;;;24.30;43.90;;;;;;6227932;27;81935;-62
2021/06/08 08:25:36;;;;;;;13.45;5.72;;;24.30;44.60;;;;;;6228418;27;81213;-63
2021/06/08 08:28:36;;;;;;;9.88;5.30;;;24.40;44.00;;;;;;6231586;27;80858;-63
2021/06/08 08:31:37;;;;;;;8.73;4.65;;;24.30;41.80;;;;;;6228968;27;80645;-63
2021/06/08 08:34:38;;;;;;;8.45;4.78;;;24.30;41.20;;;;;;6228179;27;80507;-63
2021/06/08 08:37:38;;;;;;;10.25;4.60;;;24.40;41.70;;;;;;6228047;27;80974;-63
2021/06/08 08:40:39;;;;;;;12.35;4.68;;;24.40;42.60;;;;;;6225848;27;81643;-62
2021/06/08 08:43:39;;;;;;;5.97;4.65;;;24.50;41.60;;;;;;6226080;27;81037;-64
2021/06/08 08:46:40;;;;;;;9.13;4.63;;;24.50;42.40;;;;;;6231067;27;80440;-64
2021/06/08 08:49:41;;;;;;;9.27;4.57;;;24.50;42.00;;;;;;6226672;27;80208;-64
2021/06/08 08:52:41;;;;;;;7.72;4.40;;;24.50;41.40;;;;;;6223924;27;80984;-64
2021/06/08 08:55:42;;;;;;;6.57;4.50;;;24.50;42.40;;;;;;6225102;27;80302;-64
2021/06/08 08:58:42;;;;;;;10.02;4.57;;;24.50;42.10;;;;;;6230722;27;80876;-64
2021/06/08 09:01:45;;;;;;;5.47;4.13;;;24.50;42.00;;;;;;6226816;27;80689;-64
2021/06/08 09:04:45;;;;;;;7.65;4.82;;;24.50;42.50;;;;;;6231434;27;81686;-63
2021/06/08 09:07:47;;;;;;;10.52;4.90;;;24.50;42.20;;;;;;6229137;27;80481;-63
2021/06/08 09:10:47;;;;;;;9.00;4.82;;;24.50;42.30;;;;;;6229968;27;81473;-63
2021/06/08 09:13:48;;;;;;;12.13;4.72;;;24.50;42.00;;;;;;6226515;27;81572;-63
2021/06/08 09:16:48;;;;;;;8.50;3.97;;;24.60;42.00;;;;;;6227574;27;80567;-63
2021/06/08 09:19:49;;;;;;;7.60;4.22;;;24.50;42.10;;;;;;6228538;27;80277;-63
2021/06/08 09:22:50;;;;;;;6.85;4.63;;;24.50;42.30;;;;;;6225916;27;85523;-64
2021/06/08 09:25:51;;;;;;;9.43;4.43;;;24.50;42.20;;;;;;6229149;27;81492;-63
2021/06/08 09:28:51;;;;;;;6.15;3.88;;;24.50;42.50;;;;;;6230696;27;80654;-64
2021/06/08 09:31:52;;;;;;;6.75;4.10;;;24.60;42.70;;;;;;6225080;27;80459;-64
2021/06/08 09:34:52;;;;;;;6.20;4.03;;;24.60;41.90;;;;;;6228822;27;80810;-64
2021/06/08 09:37:53;;;;;;;6.65;4.45;;;24.50;41.40;;;;;;6230807;27;80632;-64
2021/06/08 09:40:54;;;;;;;5.57;4.65;;;24.60;41.20;;;;;;6229455;27;82221;-64
2021/06/08 09:43:56;;;;;;;7.38;4.00;;;24.50;41.40;;;;;;6225543;27;80490;-64
2021/06/08 09:46:59;;;;;;;7.07;4.25;;;24.50;41.70;;;;;;6218979;27;80543;-64
2021/06/08 09:49:59;;;;;;;5.57;4.32;;;24.50;41.60;;;;;;6225563;27;81265;-64
2021/06/08 09:53:00;;;;;;;11.00;4.97;;;24.50;41.80;;;;;;6227434;27;80571;-64
2021/06/08 09:56:02;;;;;;;6.97;4.57;;;24.60;42.80;;;;;;6232581;27;80347;-64
2021/06/08 09:59:03;;;;;;;7.18;4.57;;;24.60;42.00;;;;;;6228348;27;80455;-64
2021/06/08 10:02:03;;;;;;;7.97;4.65;;;24.60;41.80;;;;;;6229184;27;81125;-64
2021/06/08 10:05:03;;;;;;;5.75;4.40;;;24.60;42.20;;;;;;6231023;27;82250;-64
2021/06/08 10:08:04;;;;;;;6.32;4.20;;;24.50;41.80;;;;;;6232124;27;80639;-63
2021/06/08 10:11:04;;;;;;;8.55;5.25;;;24.50;41.90;;;;;;6234533;27;81073;-64
2021/06/08 10:14:05;;;;;;;8.75;4.07;;;24.60;42.10;;;;;;6224638;27;81841;-64
2021/06/08 10:17:10;;;;;;;7.47;4.88;;;24.60;42.10;;;;;;6234085;27;81421;-64
2021/06/08 10:20:10;;;;;;;7.57;5.32;;;24.50;42.40;;;;;;6231352;27;80298;-64
2021/06/08 10:23:11;;;;;;;11.20;4.53;;;24.60;42.30;;;;;;6233031;27;81079;-63
2021/06/08 10:26:11;;;;;;;6.60;4.30;;;24.60;42.30;;;;;;6232562;27;80228;-64
2021/06/08 10:29:12;;;;;;;8.38;4.90;;;24.60;42.40;;;;;;6232935;27;81352;-64
2021/06/08 10:32:12;;;;;;;5.07;4.32;;;24.60;42.00;;;;;;6233388;27;80864;-64
2021/06/08 10:35:13;;;;;;;8.07;4.63;;;24.70;42.30;;;;;;6227743;27;81567;-64
2021/06/08 10:38:14;;;;;;;7.68;4.80;;;24.70;42.10;;;;;;6224763;27;80958;-64
2021/06/08 10:41:14;;;;;;;8.07;5.00;;;24.70;42.00;;;;;;6228234;27;80342;-64
2021/06/08 10:44:15;;;;;;;9.07;5.40;;;24.70;42.30;;;;;;6227489;27;80795;-64
2021/06/08 10:50:47;;;;;;;47.78;11.70;;;24.70;42.30;;;;;;6219283;27;81574;-64
2021/06/08 10:53:47;;;;;;;53.88;16.20;;;24.70;43.10;;;;;;6227986;27;82803;-64
2021/06/08 10:56:48;;;;;;;39.28;12.20;;;24.70;44.30;;;;;;6223351;27;84270;-64
2021/06/08 10:59:48;;;;;;;36.35;10.65;;;24.70;42.70;;;;;;6226801;27;83205;-64
2021/06/08 11:02:49;;;;;;;39.05;13.38;;;24.70;42.20;;;;;;6228877;27;86287;-64
2021/06/08 11:05:49;;;;;;;24.92;9.55;;;24.80;42.00;;;;;;6227133;27;85368;-64
2021/06/08 11:08:50;;;;;;;26.50;10.00;;;24.80;41.10;;;;;;6227008;27;82721;-64
2021/06/08 11:11:51;;;;;;;63.75;17.23;;;24.80;41.10;;;;;;6225818;27;83284;-65
2021/06/08 11:14:58;;;;;;;29.67;10.85;;;24.80;43.60;;;;;;6223379;27;83131;-65
2021/06/08 11:17:59;;;;;;;31.52;10.85;;;24.90;41.60;;;;;;6222479;27;83290;-64
2021/06/08 11:20:59;;;;;;;28.77;10.30;;;24.90;41.50;;;;;;6224463;27;83315;-65
2021/06/08 11:24:00;;;;;;;21.45;8.40;;;24.90;41.30;;;;;;6222934;27;85841;-65
2021/06/08 11:27:00;;;;;;;22.23;8.07;;;25.00;41.20;;;;;;6225018;27;83024;-65
2021/06/08 11:30:01;;;;;;;13.40;7.60;;;25.00;41.30;;;;;;6235424;27;80626;-64
2021/06/08 11:33:04;;;;;;;12.10;6.70;;;25.00;41.40;;;;;;6238307;27;81480;-64
2021/06/08 11:36:04;;;;;;;11.15;6.38;;;25.00;41.00;;;;;;6230717;27;80535;-65
2021/06/08 11:39:05;;;;;;;10.52;5.57;;;24.90;41.20;;;;;;6241054;27;81847;-64
2021/06/08 11:42:06;;;;;;;17.75;5.63;;;24.90;40.50;;;;;;6232183;27;82923;-64
2021/06/08 11:45:07;;;;;;;10.82;4.82;;;24.90;40.60;;;;;;6244574;27;80634;-64
2021/06/08 11:48:07;;;;;;;10.77;4.70;;;24.90;40.60;;;;;;6233947;27;80155;-64
2021/06/08 11:51:08;;;;;;;14.55;5.22;;;24.90;40.30;;;;;;6242812;27;81274;-64
2021/06/08 11:54:09;;;;;;;6.65;4.53;;;24.90;40.10;;;;;;6235375;27;80335;-64
2021/06/08 11:57:12;;;;;;;6.65;4.60;;;24.90;40.40;;;;;;6232467;27;80877;-64
2021/06/08 12:00:12;;;;;;;7.85;4.35;;;24.90;41.40;;;;;;6236339;27;80580;-64
2021/06/08 12:03:13;;;;;;;6.68;4.10;;;24.90;40.50;;;;;;6238733;27;80528;-64
2021/06/08 12:06:13;;;;;;;8.15;4.20;;;24.90;40.20;;;;;;6240347;27;80481;-64
2021/06/08 12:09:17;;;;;;;4.13;3.72;;;24.90;40.20;;;;;;6232180;27;81059;-64
2021/06/08 12:12:18;;;;;;;5.10;3.90;;;24.90;39.90;;;;;;6241896;27;80144;-65
2021/06/08 12:15:18;;;;;;;4.10;3.70;;;24.90;40.30;;;;;;6231986;27;80448;-65
2021/06/08 12:18:23;;;;;;;8.73;4.70;;;24.90;40.10;;;;;;6239102;27;81405;-65
2021/06/08 12:21:25;;;;;;;6.90;4.70;;;24.90;40.10;;;;;;6231687;27;82283;-65
2021/06/08 12:24:26;;;;;;;11.73;5.28;;;24.90;40.50;;;;;;6223109;27;81005;-64
2021/06/08 12:27:26;;;;;;;5.35;4.65;;;24.90;40.40;;;;;;6239565;27;80628;-65
2021/06/08 12:30:27;;;;;;;5.38;3.97;;;24.90;40.70;;;;;;6231623;27;80407;-64
2021/06/08 12:33:27;;;;;;;5.60;3.65;;;24.90;40.30;;;;;;6233136;27;81327;-62
2021/06/08 12:36:28;;;;;;;10.63;4.30;;;24.80;40.70;;;;;;6231721;27;80613;-64
2021/06/08 12:39:30;;;;;;;12.45;4.32;;;24.90;40.90;;;;;;6240550;27;81351;-64
2021/06/08 12:42:32;;;;;;;6.75;4.10;;;24.90;41.00;;;;;;6231279;27;80525;-65
2021/06/08 12:45:32;;;;;;;5.57;3.60;;;24.90;41.60;;;;;;6239737;27;80629;-64
2021/06/08 12:48:33;;;;;;;6.45;3.88;;;24.90;41.40;;;;;;6231802;27;81808;-62
2021/06/08 12:51:33;;;;;;;5.22;4.28;;;24.90;41.40;;;;;;6236368;27;80888;-63
2021/06/08 12:54:34;;;;;;;7.93;4.18;;;24.90;41.70;;;;;;6235014;27;82117;-62
2021/06/08 12:57:35;;;;;;;5.70;3.83;;;24.80;41.90;;;;;;6233632;27;80638;-63
2021/06/08 13:00:35;;;;;;;6.57;4.65;;;24.80;42.20;;;;;;6232610;27;80827;-63
2021/06/08 13:03:36;;;;;;;17.58;4.53;;;24.80;42.20;;;;;;6234376;27;80420;-63
2021/06/08 13:06:36;;;;;;;10.48;5.32;;;24.80;41.30;;;;;;6231841;27;80722;-63
2021/06/08 13:09:37;;;;;;;12.07;4.20;;;24.80;41.30;;;;;;6228712;27;81402;-64
2021/06/08 13:12:37;;;;;;;12.70;4.10;;;24.80;42.60;;;;;;6229083;27;80706;-65
2021/06/08 13:15:38;;;;;;;9.90;4.50;;;24.80;42.80;;;;;;6228776;27;81990;-65
2021/06/08 13:18:41;;;;;;;8.35;4.38;;;24.90;42.70;;;;;;6228403;27;81035;-65
2021/06/08 13:21:42;;;;;;;10.00;4.60;;;24.90;42.50;;;;;;6230573;27;80978;-65
2021/06/08 13:24:43;;;;;;;8.30;4.10;;;24.90;42.40;;;;;;6226726;27;80316;-64
2021/06/08 13:27:43;;;;;;;5.60;4.53;;;24.90;42.90;;;;;;6226408;27;80746;-62
2021/06/08 13:30:44;;;;;;;5.28;3.88;;;24.90;42.70;;;;;;6228899;27;80425;-65
2021/06/08 13:33:45;;;;;;;5.95;3.70;;;24.90;42.70;;;;;;6236553;27;80561;-63
2021/06/08 13:36:45;;;;;;;5.53;3.60;;;24.90;43.00;;;;;;6232708;27;81330;-63
2021/06/08 13:39:48;;;;;;;6.95;4.22;;;24.90;43.10;;;;;;6232016;27;80773;-63
2021/06/08 13:42:49;;;;;;;6.18;4.07;;;25.00;43.60;;;;;;6229832;27;81854;-64
2021/06/08 13:45:49;;;;;;;8.02;3.85;;;25.00;43.50;;;;;;6233990;27;81761;-63
2021/06/08 13:48:50;;;;;;;8.85;4.13;;;25.00;43.30;;;;;;6229841;27;80454;-64
2021/06/08 13:51:51;;;;;;;8.57;4.00;;;25.00;43.30;;;;;;6234902;27;80437;-63
2021/06/08 13:54:52;;;;;;;5.07;3.75;;;25.00;44.50;;;;;;6231532;27;80387;-64
2021/06/08 14:00:17;;;;;;;5.35;3.80;;;25.00;43.90;;;;;;6231945;27;81028;-63
2021/06/08 14:01:13;;;;;;;5.30;3.50;;;25.00;43.50;;;;;;6231609;27;80746;-63
2021/06/08 14:04:15;;;;;;;8.02;4.18;;;25.00;43.70;;;;;;6232570;27;80866;-63
2021/06/08 14:07:16;;;;;;;7.22;4.00;;;25.00;43.70;;;;;;6235617;27;80890;-63
2021/06/08 14:10:16;;;;;;;8.60;4.38;;;25.00;44.40;;;;;;6231377;27;80687;-66
2021/06/08 14:13:17;;;;;;;12.10;4.20;;;25.00;44.20;;;;;;6236040;27;80233;-63
2021/06/08 14:16:19;;;;;;;10.85;4.78;;;25.00;44.00;;;;;;6233533;27;81028;-63
2021/06/08 14:19:19;;;;;;;5.05;4.22;;;25.00;44.00;;;;;;6235532;27;80568;-63
2021/06/08 14:22:20;;;;;;;6.00;4.85;;;25.00;44.00;;;;;;6234971;27;81546;-64
2021/06/08 14:25:20;;;;;;;6.28;4.30;;;25.00;43.70;;;;;;6246374;27;80669;-63
2021/06/08 14:28:21;;;;;;;6.57;4.40;;;25.00;43.70;;;;;;6244482;27;80506;-63
2021/06/08 14:31:21;;;;;;;5.75;3.45;;;25.10;44.00;;;;;;6231866;27;80568;-62
2021/06/08 14:34:22;;;;;;;9.52;4.70;;;25.10;43.90;;;;;;6228180;27;80531;-63
2021/06/08 14:37:22;;;;;;;6.75;4.38;;;25.00;43.80;;;;;;6239472;27;81625;-63
2021/06/08 14:40:23;;;;;;;5.68;3.97;;;25.00;44.30;;;;;;6236104;27;80570;-62
2021/06/08 14:43:23;;;;;;;6.45;3.90;;;25.00;44.50;;;;;;6236308;27;82671;-63
2021/06/08 14:46:28;;;;;;;5.78;4.15;;;25.00;44.10;;;;;;6235812;27;80544;-63
2021/06/08 14:49:28;;;;;;;6.78;4.20;;;25.00;44.20;;;;;;6234880;27;83365;-63
2021/06/08 14:52:31;;;;;;;7.05;4.35;;;25.00;44.50;;;;;;6233448;27;82269;-63
2021/06/08 14:55:31;;;;;;;8.00;4.07;;;25.00;44.30;;;;;;6234184;27;80383;-63
2021/06/08 14:58:32;;;;;;;5.13;4.18;;;25.00;44.20;;;;;;6235695;27;80428;-63
2021/06/08 15:01:32;;;;;;;5.18;4.10;;;25.00;44.30;;;;;;6233501;27;80004;-63
2021/06/08 15:04:33;;;;;;;5.22;4.10;;;25.00;44.40;;;;;;6236425;27;81382;-63
2021/06/08 15:07:33;;;;;;;5.28;4.13;;;25.00;44.50;;;;;;6244150;27;80208;-63
2021/06/08 15:10:36;;;;;;;8.38;4.28;;;25.00;44.50;;;;;;6236467;27;80383;-64
2021/06/08 15:13:37;;;;;;;6.85;4.60;;;25.00;44.50;;;;;;6232846;27;80472;-62
2021/06/08 15:16:37;;;;;;;8.60;4.05;;;25.00;44.70;;;;;;6232814;27;80587;-63
2021/06/08 15:19:38;;;;;;;7.15;4.05;;;25.00;44.60;;;;;;6235091;27;81455;-63
2021/06/08 15:22:38;;;;;;;6.35;3.80;;;25.00;44.70;;;;;;6235496;27;80419;-63
2021/06/08 15:25:39;;;;;;;6.63;4.43;;;24.90;44.80;;;;;;6232527;27;80474;-62
2021/06/08 15:28:39;;;;;;;7.38;4.10;;;24.90;44.50;;;;;;6237152;27;81344;-63
2021/06/08 15:31:40;;;;;;;4.80;3.78;;;24.90;44.50;;;;;;6234396;27;82484;-64
2021/06/08 15:34:41;;;;;;;6.60;4.82;;;24.90;44.40;;;;;;6234400;27;81180;-62
2021/06/08 15:37:42;;;;;;;9.23;4.45;;;24.90;44.60;;;;;;6233071;27;83642;-62
2021/06/08 15:40:42;;;;;;;5.38;4.22;;;24.90;45.50;;;;;;6234536;27;80261;-62